sensor_id;sensor_type;location;lat;lon;timestamp;P1;durP1;ratioP1;P2;durP2;ratioP2
71777;SDS011;59609;52.430;4.668;2023-01-23T00:01:23;9.67;;;4.20;;
71777;SDS011;59609;52.430;4.668;2023-01-23T00:03:50;11.98;;;4.43;;
71777;SDS011;59609;52.430;4.668;2023-01-23T00:06:16;10.93;;;4.68;;
71777;SDS011;59609;52.430;4.668;2023-01-23T00:08:42;20.60;;;7.88;;
71777;SDS011;59609;52.430;4.668;2023-01-23T00:11:10;9.85;;;4.85;;
71777;SDS011;59609;52.430;4.668;2023-01-23T00:13:35;11.77;;;4.40;;
71777;SDS011;59609;52.430;4.668;2023-01-23T00:16:14;8.15;;;4.43;;
71777;SDS011;59609;52.430;4.668;2023-01-23T00:18:39;10.88;;;5.25;;
71777;SDS011;59609;52.430;4.668;2023-01-23T00:21:05;12.37;;;4.70;;
71777;SDS011;59609;52.430;4.668;2023-01-23T00:23:31;11.32;;;5.15;;
71777;SDS011;59609;52.430;4.668;2023-01-23T00:26:00;11.60;;;4.72;;
71777;SDS011;59609;52.430;4.668;2023-01-23T00:28:26;10.95;;;5.28;;
71777;SDS011;59609;52.430;4.668;2023-01-23T00:30:51;12.23;;;4.40;;
71777;SDS011;59609;52.430;4.668;2023-01-23T00:33:16;12.13;;;4.60;;
71777;SDS011;59609;52.430;4.668;2023-01-23T00:35:42;12.97;;;5.17;;
71777;SDS011;59609;52.430;4.668;2023-01-23T00:38:07;10.67;;;5.10;;
71777;SDS011;59609;52.430;4.668;2023-01-23T00:40:32;14.00;;;4.97;;
71777;SDS011;59609;52.430;4.668;2023-01-23T00:42:57;9.43;;;4.72;;
71777;SDS011;59609;52.430;4.668;2023-01-23T00:45:23;18.43;;;5.20;;
71777;SDS011;59609;52.430;4.668;2023-01-23T00:47:48;11.60;;;4.70;;
71777;SDS011;59609;52.430;4.668;2023-01-23T00:50:13;10.37;;;4.20;;
71777;SDS011;59609;52.430;4.668;2023-01-23T00:52:39;17.05;;;5.82;;
71777;SDS011;59609;52.430;4.668;2023-01-23T00:55:04;21.00;;;5.57;;
71777;SDS011;59609;52.430;4.668;2023-01-23T00:57:29;10.57;;;4.97;;
71777;SDS011;59609;52.430;4.668;2023-01-23T00:59:55;10.23;;;4.77;;
71777;SDS011;59609;52.430;4.668;2023-01-23T01:02:20;13.97;;;5.57;;
71777;SDS011;59609;52.430;4.668;2023-01-23T01:04:45;14.27;;;5.30;;
71777;SDS011;59609;52.430;4.668;2023-01-23T01:07:10;11.83;;;5.13;;
71777;SDS011;59609;52.430;4.668;2023-01-23T01:09:35;13.50;;;5.30;;
71777;SDS011;59609;52.430;4.668;2023-01-23T01:12:01;13.60;;;5.50;;
71777;SDS011;59609;52.430;4.668;2023-01-23T01:14:26;11.87;;;5.20;;
71777;SDS011;59609;52.430;4.668;2023-01-23T01:16:51;12.73;;;4.93;;
71777;SDS011;59609;52.430;4.668;2023-01-23T01:19:16;15.73;;;5.60;;
71777;SDS011;59609;52.430;4.668;2023-01-23T01:21:42;13.55;;;5.25;;
71777;SDS011;59609;52.430;4.668;2023-01-23T01:24:08;17.77;;;5.67;;
71777;SDS011;59609;52.430;4.668;2023-01-23T01:26:33;18.63;;;5.53;;
71777;SDS011;59609;52.430;4.668;2023-01-23T01:28:58;14.17;;;5.50;;
71777;SDS011;59609;52.430;4.668;2023-01-23T01:31:24;13.77;;;5.97;;
71777;SDS011;59609;52.430;4.668;2023-01-23T01:33:49;17.97;;;5.87;;
71777;SDS011;59609;52.430;4.668;2023-01-23T01:36:16;19.38;;;5.70;;
71777;SDS011;59609;52.430;4.668;2023-01-23T01:38:42;20.65;;;5.60;;
71777;SDS011;59609;52.430;4.668;2023-01-23T01:41:07;14.07;;;5.82;;
71777;SDS011;59609;52.430;4.668;2023-01-23T01:43:33;12.73;;;5.40;;
71777;SDS011;59609;52.430;4.668;2023-01-23T01:51:02;14.40;;;5.70;;
71777;SDS011;59609;52.430;4.668;2023-01-23T01:53:28;13.20;;;5.43;;
71777;SDS011;59609;52.430;4.668;2023-01-23T01:55:55;15.07;;;5.97;;
71777;SDS011;59609;52.430;4.668;2023-01-23T01:58:21;15.60;;;5.97;;
71777;SDS011;59609;52.430;4.668;2023-01-23T02:00:46;17.45;;;6.28;;
71777;SDS011;59609;52.430;4.668;2023-01-23T02:03:12;16.40;;;5.40;;
71777;SDS011;59609;52.430;4.668;2023-01-23T02:05:38;13.83;;;6.70;;
71777;SDS011;59609;52.430;4.668;2023-01-23T02:08:10;16.15;;;6.35;;
71777;SDS011;59609;52.430;4.668;2023-01-23T02:10:37;14.20;;;6.10;;
71777;SDS011;59609;52.430;4.668;2023-01-23T02:13:13;15.93;;;6.23;;
71777;SDS011;59609;52.430;4.668;2023-01-23T02:15:42;15.82;;;5.50;;
71777;SDS011;59609;52.430;4.668;2023-01-23T02:18:07;16.67;;;6.13;;
71777;SDS011;59609;52.430;4.668;2023-01-23T02:20:32;14.73;;;5.63;;
71777;SDS011;59609;52.430;4.668;2023-01-23T02:28:07;14.88;;;5.72;;
71777;SDS011;59609;52.430;4.668;2023-01-23T02:30:34;16.27;;;7.15;;
71777;SDS011;59609;52.430;4.668;2023-01-23T02:33:09;13.02;;;5.47;;
71777;SDS011;59609;52.430;4.668;2023-01-23T02:35:36;16.23;;;6.60;;
71777;SDS011;59609;52.430;4.668;2023-01-23T02:38:02;22.13;;;7.00;;
71777;SDS011;59609;52.430;4.668;2023-01-23T02:40:32;17.90;;;6.10;;
71777;SDS011;59609;52.430;4.668;2023-01-23T02:42:58;15.13;;;5.68;;
71777;SDS011;59609;52.430;4.668;2023-01-23T02:45:24;12.32;;;5.53;;
71777;SDS011;59609;52.430;4.668;2023-01-23T02:47:49;12.65;;;5.78;;
71777;SDS011;59609;52.430;4.668;2023-01-23T02:50:16;17.87;;;6.07;;
71777;SDS011;59609;52.430;4.668;2023-01-23T02:52:41;13.10;;;5.85;;
71777;SDS011;59609;52.430;4.668;2023-01-23T02:55:07;15.45;;;6.32;;
71777;SDS011;59609;52.430;4.668;2023-01-23T02:57:32;18.25;;;6.00;;
71777;SDS011;59609;52.430;4.668;2023-01-23T02:59:58;15.75;;;5.80;;
71777;SDS011;59609;52.430;4.668;2023-01-23T03:02:47;19.38;;;6.75;;
71777;SDS011;59609;52.430;4.668;2023-01-23T03:05:13;19.35;;;6.20;;
71777;SDS011;59609;52.430;4.668;2023-01-23T03:07:38;14.90;;;5.60;;
71777;SDS011;59609;52.430;4.668;2023-01-23T03:10:04;15.17;;;5.93;;
71777;SDS011;59609;52.430;4.668;2023-01-23T03:12:29;13.15;;;5.57;;
71777;SDS011;59609;52.430;4.668;2023-01-23T03:14:55;19.20;;;6.90;;
71777;SDS011;59609;52.430;4.668;2023-01-23T03:17:20;14.70;;;6.20;;
71777;SDS011;59609;52.430;4.668;2023-01-23T03:19:46;17.10;;;6.00;;
71777;SDS011;59609;52.430;4.668;2023-01-23T03:22:11;15.07;;;5.80;;
71777;SDS011;59609;52.430;4.668;2023-01-23T03:24:36;17.70;;;6.00;;
71777;SDS011;59609;52.430;4.668;2023-01-23T03:27:03;15.55;;;6.25;;
71777;SDS011;59609;52.430;4.668;2023-01-23T03:29:28;18.20;;;5.63;;
71777;SDS011;59609;52.430;4.668;2023-01-23T03:32:13;14.07;;;5.97;;
71777;SDS011;59609;52.430;4.668;2023-01-23T03:34:39;15.75;;;6.68;;
71777;SDS011;59609;52.430;4.668;2023-01-23T03:37:05;16.02;;;6.68;;
71777;SDS011;59609;52.430;4.668;2023-01-23T03:39:32;12.00;;;5.75;;
71777;SDS011;59609;52.430;4.668;2023-01-23T03:42:15;11.75;;;5.65;;
71777;SDS011;59609;52.430;4.668;2023-01-23T03:44:41;12.65;;;5.57;;
71777;SDS011;59609;52.430;4.668;2023-01-23T03:47:06;15.35;;;6.30;;
71777;SDS011;59609;52.430;4.668;2023-01-23T03:49:31;16.20;;;6.20;;
71777;SDS011;59609;52.430;4.668;2023-01-23T03:51:57;14.83;;;6.50;;
71777;SDS011;59609;52.430;4.668;2023-01-23T03:54:22;16.42;;;6.22;;
71777;SDS011;59609;52.430;4.668;2023-01-23T03:56:47;12.83;;;6.57;;
71777;SDS011;59609;52.430;4.668;2023-01-23T03:59:12;17.53;;;6.33;;
71777;SDS011;59609;52.430;4.668;2023-01-23T04:01:38;16.77;;;6.70;;
71777;SDS011;59609;52.430;4.668;2023-01-23T04:04:03;20.50;;;6.70;;
71777;SDS011;59609;52.430;4.668;2023-01-23T04:06:28;14.70;;;6.20;;
71777;SDS011;59609;52.430;4.668;2023-01-23T04:08:54;16.67;;;5.88;;
71777;SDS011;59609;52.430;4.668;2023-01-23T04:11:20;17.85;;;6.72;;
71777;SDS011;59609;52.430;4.668;2023-01-23T04:13:46;13.88;;;5.50;;
71777;SDS011;59609;52.430;4.668;2023-01-23T04:16:11;15.60;;;6.65;;
71777;SDS011;59609;52.430;4.668;2023-01-23T04:18:36;14.30;;;6.47;;
71777;SDS011;59609;52.430;4.668;2023-01-23T04:21:02;17.10;;;5.93;;
71777;SDS011;59609;52.430;4.668;2023-01-23T04:23:27;18.17;;;5.97;;
71777;SDS011;59609;52.430;4.668;2023-01-23T04:25:52;18.47;;;6.60;;
71777;SDS011;59609;52.430;4.668;2023-01-23T04:28:18;15.83;;;6.63;;
71777;SDS011;59609;52.430;4.668;2023-01-23T04:30:43;13.68;;;6.07;;
71777;SDS011;59609;52.430;4.668;2023-01-23T04:33:09;19.35;;;6.30;;
71777;SDS011;59609;52.430;4.668;2023-01-23T04:35:34;16.13;;;6.73;;
71777;SDS011;59609;52.430;4.668;2023-01-23T04:37:59;15.20;;;6.20;;
71777;SDS011;59609;52.430;4.668;2023-01-23T04:40:25;18.13;;;6.78;;
71777;SDS011;59609;52.430;4.668;2023-01-23T04:42:50;13.38;;;6.32;;
71777;SDS011;59609;52.430;4.668;2023-01-23T04:45:15;17.13;;;6.72;;
71777;SDS011;59609;52.430;4.668;2023-01-23T04:47:41;17.47;;;6.53;;
71777;SDS011;59609;52.430;4.668;2023-01-23T04:50:06;16.90;;;6.37;;
71777;SDS011;59609;52.430;4.668;2023-01-23T04:52:31;15.85;;;5.70;;
71777;SDS011;59609;52.430;4.668;2023-01-23T04:54:57;14.57;;;5.80;;
71777;SDS011;59609;52.430;4.668;2023-01-23T04:57:22;19.83;;;6.63;;
71777;SDS011;59609;52.430;4.668;2023-01-23T04:59:47;12.80;;;5.82;;
71777;SDS011;59609;52.430;4.668;2023-01-23T05:02:13;15.97;;;6.70;;
71777;SDS011;59609;52.430;4.668;2023-01-23T05:04:38;11.37;;;5.77;;
71777;SDS011;59609;52.430;4.668;2023-01-23T05:07:03;12.07;;;5.60;;
71777;SDS011;59609;52.430;4.668;2023-01-23T05:09:28;15.67;;;6.43;;
71777;SDS011;59609;52.430;4.668;2023-01-23T05:11:53;17.17;;;6.67;;
71777;SDS011;59609;52.430;4.668;2023-01-23T05:14:19;13.97;;;6.70;;
71777;SDS011;59609;52.430;4.668;2023-01-23T05:16:46;18.95;;;6.20;;
71777;SDS011;59609;52.430;4.668;2023-01-23T05:19:11;14.77;;;6.28;;
71777;SDS011;59609;52.430;4.668;2023-01-23T05:21:36;15.80;;;5.80;;
71777;SDS011;59609;52.430;4.668;2023-01-23T05:24:02;18.70;;;7.10;;
71777;SDS011;59609;52.430;4.668;2023-01-23T05:26:27;13.90;;;6.05;;
71777;SDS011;59609;52.430;4.668;2023-01-23T05:28:52;12.90;;;5.83;;
71777;SDS011;59609;52.430;4.668;2023-01-23T05:31:17;16.37;;;6.90;;
71777;SDS011;59609;52.430;4.668;2023-01-23T05:33:43;16.17;;;6.00;;
71777;SDS011;59609;52.430;4.668;2023-01-23T05:36:08;16.57;;;6.30;;
71777;SDS011;59609;52.430;4.668;2023-01-23T05:38:33;16.23;;;6.43;;
71777;SDS011;59609;52.430;4.668;2023-01-23T05:40:58;12.93;;;6.03;;
71777;SDS011;59609;52.430;4.668;2023-01-23T05:43:23;15.57;;;6.47;;
71777;SDS011;59609;52.430;4.668;2023-01-23T05:45:49;18.03;;;7.07;;
71777;SDS011;59609;52.430;4.668;2023-01-23T05:48:14;13.73;;;6.63;;
71777;SDS011;59609;52.430;4.668;2023-01-23T05:50:39;14.97;;;6.37;;
71777;SDS011;59609;52.430;4.668;2023-01-23T05:53:04;19.33;;;6.57;;
71777;SDS011;59609;52.430;4.668;2023-01-23T05:55:30;18.40;;;6.90;;
71777;SDS011;59609;52.430;4.668;2023-01-23T05:57:55;14.67;;;7.03;;
71777;SDS011;59609;52.430;4.668;2023-01-23T06:00:20;14.53;;;6.57;;
71777;SDS011;59609;52.430;4.668;2023-01-23T06:02:45;15.47;;;7.17;;
71777;SDS011;59609;52.430;4.668;2023-01-23T06:05:11;19.83;;;6.93;;
71777;SDS011;59609;52.430;4.668;2023-01-23T06:07:36;16.42;;;6.80;;
71777;SDS011;59609;52.430;4.668;2023-01-23T06:10:02;19.38;;;7.28;;
71777;SDS011;59609;52.430;4.668;2023-01-23T06:12:27;17.08;;;7.38;;
71777;SDS011;59609;52.430;4.668;2023-01-23T06:14:52;18.57;;;6.63;;
71777;SDS011;59609;52.430;4.668;2023-01-23T06:17:17;14.03;;;6.53;;
71777;SDS011;59609;52.430;4.668;2023-01-23T06:19:43;19.93;;;6.70;;
71777;SDS011;59609;52.430;4.668;2023-01-23T06:22:08;16.93;;;7.17;;
71777;SDS011;59609;52.430;4.668;2023-01-23T06:24:33;14.13;;;7.20;;
71777;SDS011;59609;52.430;4.668;2023-01-23T06:26:58;17.57;;;7.07;;
71777;SDS011;59609;52.430;4.668;2023-01-23T06:29:24;17.25;;;6.90;;
71777;SDS011;59609;52.430;4.668;2023-01-23T06:31:49;18.70;;;7.03;;
71777;SDS011;59609;52.430;4.668;2023-01-23T06:34:14;20.63;;;6.93;;
71777;SDS011;59609;52.430;4.668;2023-01-23T06:36:39;20.00;;;7.00;;
71777;SDS011;59609;52.430;4.668;2023-01-23T06:39:05;17.80;;;7.05;;
71777;SDS011;59609;52.430;4.668;2023-01-23T06:41:30;19.75;;;7.75;;
71777;SDS011;59609;52.430;4.668;2023-01-23T06:43:56;17.97;;;7.57;;
71777;SDS011;59609;52.430;4.668;2023-01-23T06:46:21;18.60;;;7.38;;
71777;SDS011;59609;52.430;4.668;2023-01-23T06:48:46;16.33;;;7.70;;
71777;SDS011;59609;52.430;4.668;2023-01-23T06:51:12;19.03;;;7.17;;
71777;SDS011;59609;52.430;4.668;2023-01-23T06:53:37;18.73;;;7.50;;
71777;SDS011;59609;52.430;4.668;2023-01-23T06:56:04;20.83;;;7.93;;
71777;SDS011;59609;52.430;4.668;2023-01-23T06:58:29;20.23;;;8.05;;
71777;SDS011;59609;52.430;4.668;2023-01-23T07:00:54;20.73;;;7.57;;
71777;SDS011;59609;52.430;4.668;2023-01-23T07:03:20;18.73;;;7.40;;
71777;SDS011;59609;52.430;4.668;2023-01-23T07:05:45;20.00;;;8.25;;
71777;SDS011;59609;52.430;4.668;2023-01-23T07:08:10;22.20;;;9.23;;
71777;SDS011;59609;52.430;4.668;2023-01-23T07:10:36;25.67;;;8.67;;
71777;SDS011;59609;52.430;4.668;2023-01-23T07:13:05;20.48;;;8.88;;
71777;SDS011;59609;52.430;4.668;2023-01-23T07:15:31;18.27;;;7.88;;
71777;SDS011;59609;52.430;4.668;2023-01-23T07:17:56;21.02;;;7.88;;
71777;SDS011;59609;52.430;4.668;2023-01-23T07:20:21;21.07;;;7.90;;
71777;SDS011;59609;52.430;4.668;2023-01-23T07:22:51;21.10;;;7.60;;
71777;SDS011;59609;52.430;4.668;2023-01-23T07:25:16;22.13;;;7.97;;
71777;SDS011;59609;52.430;4.668;2023-01-23T07:27:41;15.33;;;6.87;;
71777;SDS011;59609;52.430;4.668;2023-01-23T07:30:07;22.57;;;7.83;;
71777;SDS011;59609;52.430;4.668;2023-01-23T07:32:32;20.83;;;8.38;;
71777;SDS011;59609;52.430;4.668;2023-01-23T07:34:57;21.87;;;8.00;;
71777;SDS011;59609;52.430;4.668;2023-01-23T07:37:23;23.27;;;8.43;;
71777;SDS011;59609;52.430;4.668;2023-01-23T07:39:49;18.40;;;8.25;;
71777;SDS011;59609;52.430;4.668;2023-01-23T07:42:14;19.42;;;8.10;;
71777;SDS011;59609;52.430;4.668;2023-01-23T07:44:39;22.50;;;7.87;;
71777;SDS011;59609;52.430;4.668;2023-01-23T07:47:05;24.33;;;8.43;;
71777;SDS011;59609;52.430;4.668;2023-01-23T07:49:30;21.87;;;8.17;;
71777;SDS011;59609;52.430;4.668;2023-01-23T07:51:55;17.23;;;7.63;;
71777;SDS011;59609;52.430;4.668;2023-01-23T07:54:20;18.93;;;7.67;;
71777;SDS011;59609;52.430;4.668;2023-01-23T07:56:47;20.13;;;8.73;;
71777;SDS011;59609;52.430;4.668;2023-01-23T07:59:13;19.40;;;8.60;;
71777;SDS011;59609;52.430;4.668;2023-01-23T08:01:38;19.40;;;8.87;;
71777;SDS011;59609;52.430;4.668;2023-01-23T08:04:03;17.67;;;7.60;;
71777;SDS011;59609;52.430;4.668;2023-01-23T08:06:28;22.23;;;8.07;;
71777;SDS011;59609;52.430;4.668;2023-01-23T08:08:54;17.73;;;8.13;;
71777;SDS011;59609;52.430;4.668;2023-01-23T08:11:19;23.80;;;9.30;;
71777;SDS011;59609;52.430;4.668;2023-01-23T08:13:47;24.35;;;8.55;;
71777;SDS011;59609;52.430;4.668;2023-01-23T08:16:12;18.48;;;8.27;;
71777;SDS011;59609;52.430;4.668;2023-01-23T08:18:37;21.83;;;8.13;;
71777;SDS011;59609;52.430;4.668;2023-01-23T08:21:02;20.97;;;8.63;;
71777;SDS011;59609;52.430;4.668;2023-01-23T08:23:29;21.25;;;7.80;;
71777;SDS011;59609;52.430;4.668;2023-01-23T08:25:55;17.60;;;7.55;;
71777;SDS011;59609;52.430;4.668;2023-01-23T08:28:20;19.42;;;7.93;;
71777;SDS011;59609;52.430;4.668;2023-01-23T08:30:46;21.53;;;8.43;;
71777;SDS011;59609;52.430;4.668;2023-01-23T08:33:11;20.87;;;8.67;;
71777;SDS011;59609;52.430;4.668;2023-01-23T08:35:36;22.42;;;9.30;;
71777;SDS011;59609;52.430;4.668;2023-01-23T08:38:01;20.87;;;8.77;;
71777;SDS011;59609;52.430;4.668;2023-01-23T08:40:27;22.00;;;8.95;;
71777;SDS011;59609;52.430;4.668;2023-01-23T08:42:52;20.75;;;9.27;;
71777;SDS011;59609;52.430;4.668;2023-01-23T08:45:18;20.03;;;9.07;;
71777;SDS011;59609;52.430;4.668;2023-01-23T08:47:43;21.63;;;8.23;;
71777;SDS011;59609;52.430;4.668;2023-01-23T08:50:08;16.63;;;7.87;;
71777;SDS011;59609;52.430;4.668;2023-01-23T08:52:34;18.92;;;8.27;;
71777;SDS011;59609;52.430;4.668;2023-01-23T08:54:59;22.67;;;8.90;;
71777;SDS011;59609;52.430;4.668;2023-01-23T08:57:24;21.80;;;8.63;;
71777;SDS011;59609;52.430;4.668;2023-01-23T08:59:50;20.93;;;8.30;;
71777;SDS011;59609;52.430;4.668;2023-01-23T09:02:15;26.30;;;9.93;;
71777;SDS011;59609;52.430;4.668;2023-01-23T09:04:40;22.37;;;9.80;;
71777;SDS011;59609;52.430;4.668;2023-01-23T09:07:05;23.48;;;9.43;;
71777;SDS011;59609;52.430;4.668;2023-01-23T09:09:30;24.83;;;10.20;;
71777;SDS011;59609;52.430;4.668;2023-01-23T09:11:56;25.07;;;8.47;;
71777;SDS011;59609;52.430;4.668;2023-01-23T09:14:21;21.27;;;7.93;;
71777;SDS011;59609;52.430;4.668;2023-01-23T09:16:46;22.37;;;9.67;;
71777;SDS011;59609;52.430;4.668;2023-01-23T09:19:11;19.23;;;8.73;;
71777;SDS011;59609;52.430;4.668;2023-01-23T09:21:37;25.20;;;9.23;;
71777;SDS011;59609;52.430;4.668;2023-01-23T09:24:02;18.42;;;8.75;;
71777;SDS011;59609;52.430;4.668;2023-01-23T09:26:27;21.65;;;9.07;;
71777;SDS011;59609;52.430;4.668;2023-01-23T09:28:53;19.00;;;8.97;;
71777;SDS011;59609;52.430;4.668;2023-01-23T09:31:18;21.40;;;8.82;;
71777;SDS011;59609;52.430;4.668;2023-01-23T09:33:43;26.13;;;9.20;;
71777;SDS011;59609;52.430;4.668;2023-01-23T09:36:09;23.87;;;8.87;;
71777;SDS011;59609;52.430;4.668;2023-01-23T09:38:34;21.50;;;8.70;;
71777;SDS011;59609;52.430;4.668;2023-01-23T09:41:05;21.10;;;9.38;;
71777;SDS011;59609;52.430;4.668;2023-01-23T09:48:25;20.60;;;9.00;;
71777;SDS011;59609;52.430;4.668;2023-01-23T09:50:53;21.40;;;8.65;;
71777;SDS011;59609;52.430;4.668;2023-01-23T09:53:19;23.35;;;9.98;;
71777;SDS011;59609;52.430;4.668;2023-01-23T09:55:47;21.33;;;8.68;;
71777;SDS011;59609;52.430;4.668;2023-01-23T09:58:57;24.70;;;8.63;;
71777;SDS011;59609;52.430;4.668;2023-01-23T10:01:02;20.42;;;8.57;;
71777;SDS011;59609;52.430;4.668;2023-01-23T10:03:28;24.53;;;9.70;;
71777;SDS011;59609;52.430;4.668;2023-01-23T10:08:29;24.03;;;9.40;;
71777;SDS011;59609;52.430;4.668;2023-01-23T10:13:39;22.50;;;10.35;;
71777;SDS011;59609;52.430;4.668;2023-01-23T10:18:43;23.42;;;9.80;;
71777;SDS011;59609;52.430;4.668;2023-01-23T10:26:33;22.08;;;9.35;;
71777;SDS011;59609;52.430;4.668;2023-01-23T10:31:56;21.05;;;9.38;;
71777;SDS011;59609;52.430;4.668;2023-01-23T10:36:58;20.07;;;8.80;;
71777;SDS011;59609;52.430;4.668;2023-01-23T10:39:26;25.15;;;10.23;;
71777;SDS011;59609;52.430;4.668;2023-01-23T10:41:53;21.60;;;9.73;;
71777;SDS011;59609;52.430;4.668;2023-01-23T10:44:18;19.87;;;9.93;;
71777;SDS011;59609;52.430;4.668;2023-01-23T10:46:46;24.85;;;10.30;;
71777;SDS011;59609;52.430;4.668;2023-01-23T10:49:22;23.98;;;10.55;;
71777;SDS011;59609;52.430;4.668;2023-01-23T10:51:50;23.25;;;9.43;;
71777;SDS011;59609;52.430;4.668;2023-01-23T10:54:17;20.27;;;8.53;;
71777;SDS011;59609;52.430;4.668;2023-01-23T10:59:40;24.00;;;9.95;;
71777;SDS011;59609;52.430;4.668;2023-01-23T11:04:38;22.35;;;9.18;;
71777;SDS011;59609;52.430;4.668;2023-01-23T11:07:17;21.38;;;9.13;;
71777;SDS011;59609;52.430;4.668;2023-01-23T11:12:13;18.52;;;7.95;;
71777;SDS011;59609;52.430;4.668;2023-01-23T11:14:39;18.17;;;8.45;;
71777;SDS011;59609;52.430;4.668;2023-01-23T11:17:13;18.87;;;8.43;;
71777;SDS011;59609;52.430;4.668;2023-01-23T11:19:38;19.52;;;8.48;;
71777;SDS011;59609;52.430;4.668;2023-01-23T11:22:04;17.75;;;8.15;;
71777;SDS011;59609;52.430;4.668;2023-01-23T11:24:30;18.70;;;7.93;;
71777;SDS011;59609;52.430;4.668;2023-01-23T11:29:28;20.77;;;8.05;;
71777;SDS011;59609;52.430;4.668;2023-01-23T11:32:04;17.92;;;7.70;;
71777;SDS011;59609;52.430;4.668;2023-01-23T11:34:49;17.67;;;7.55;;
71777;SDS011;59609;52.430;4.668;2023-01-23T11:37:25;14.23;;;7.00;;
71777;SDS011;59609;52.430;4.668;2023-01-23T11:42:19;15.45;;;6.63;;
71777;SDS011;59609;52.430;4.668;2023-01-23T11:44:45;15.63;;;7.53;;
71777;SDS011;59609;52.430;4.668;2023-01-23T12:06:12;11.88;;;6.15;;
71777;SDS011;59609;52.430;4.668;2023-01-23T12:11:14;11.88;;;5.80;;
71777;SDS011;59609;52.430;4.668;2023-01-23T12:13:50;13.98;;;6.38;;
71777;SDS011;59609;52.430;4.668;2023-01-23T12:21:17;10.43;;;5.30;;
71777;SDS011;59609;52.430;4.668;2023-01-23T12:26:15;11.25;;;5.00;;
71777;SDS011;59609;52.430;4.668;2023-01-23T12:42:25;10.55;;;5.63;;
71777;SDS011;59609;52.430;4.668;2023-01-23T12:47:15;9.23;;;4.90;;
71777;SDS011;59609;52.430;4.668;2023-01-23T12:49:53;9.40;;;4.47;;
71777;SDS011;59609;52.430;4.668;2023-01-23T12:52:21;6.95;;;4.07;;
71777;SDS011;59609;52.430;4.668;2023-01-23T12:57:36;9.82;;;5.45;;
71777;SDS011;59609;52.430;4.668;2023-01-23T13:07:47;6.53;;;3.80;;
71777;SDS011;59609;52.430;4.668;2023-01-23T13:12:40;8.70;;;3.80;;
71777;SDS011;59609;52.430;4.668;2023-01-23T13:15:38;5.95;;;3.25;;
71777;SDS011;59609;52.430;4.668;2023-01-23T13:18:00;8.05;;;3.58;;
71777;SDS011;59609;52.430;4.668;2023-01-23T13:20:30;5.45;;;3.53;;
71777;SDS011;59609;52.430;4.668;2023-01-23T13:25:45;6.13;;;3.00;;
71777;SDS011;59609;52.430;4.668;2023-01-23T13:28:31;5.35;;;2.92;;
71777;SDS011;59609;52.430;4.668;2023-01-23T13:31:00;4.95;;;3.10;;
71777;SDS011;59609;52.430;4.668;2023-01-23T13:36:10;5.05;;;2.78;;
71777;SDS011;59609;52.430;4.668;2023-01-23T13:38:36;4.75;;;2.83;;
71777;SDS011;59609;52.430;4.668;2023-01-23T13:46:15;6.50;;;2.80;;
71777;SDS011;59609;52.430;4.668;2023-01-23T13:48:53;3.75;;;2.22;;
71777;SDS011;59609;52.430;4.668;2023-01-23T13:51:40;5.15;;;2.33;;
71777;SDS011;59609;52.430;4.668;2023-01-23T13:54:12;3.87;;;2.10;;
71777;SDS011;59609;52.430;4.668;2023-01-23T13:56:57;3.55;;;1.92;;
71777;SDS011;59609;52.430;4.668;2023-01-23T13:59:34;4.07;;;2.28;;
71777;SDS011;59609;52.430;4.668;2023-01-23T14:02:06;4.00;;;2.20;;
71777;SDS011;59609;52.430;4.668;2023-01-23T14:05:03;3.58;;;2.20;;
71777;SDS011;59609;52.430;4.668;2023-01-23T14:07:40;3.92;;;2.03;;
71777;SDS011;59609;52.430;4.668;2023-01-23T14:12:43;5.15;;;3.00;;
71777;SDS011;59609;52.430;4.668;2023-01-23T14:18:01;4.45;;;2.47;;
71777;SDS011;59609;52.430;4.668;2023-01-23T14:20:28;4.53;;;2.10;;
71777;SDS011;59609;52.430;4.668;2023-01-23T14:22:56;5.03;;;2.75;;
71777;SDS011;59609;52.430;4.668;2023-01-23T14:25:21;4.78;;;2.60;;
71777;SDS011;59609;52.430;4.668;2023-01-23T14:27:46;4.68;;;2.17;;
71777;SDS011;59609;52.430;4.668;2023-01-23T14:30:18;5.00;;;2.33;;
71777;SDS011;59609;52.430;4.668;2023-01-23T14:32:44;5.25;;;2.60;;
71777;SDS011;59609;52.430;4.668;2023-01-23T14:37:44;5.70;;;2.75;;
71777;SDS011;59609;52.430;4.668;2023-01-23T14:40:14;3.92;;;2.25;;
71777;SDS011;59609;52.430;4.668;2023-01-23T14:42:39;5.28;;;2.63;;
71777;SDS011;59609;52.430;4.668;2023-01-23T14:45:07;5.20;;;2.73;;
71777;SDS011;59609;52.430;4.668;2023-01-23T14:47:39;4.65;;;2.60;;
71777;SDS011;59609;52.430;4.668;2023-01-23T14:50:08;5.55;;;2.88;;
71777;SDS011;59609;52.430;4.668;2023-01-23T14:52:34;7.82;;;2.72;;
71777;SDS011;59609;52.430;4.668;2023-01-23T14:55:00;4.85;;;2.15;;
71777;SDS011;59609;52.430;4.668;2023-01-23T14:57:25;5.50;;;2.60;;
71777;SDS011;59609;52.430;4.668;2023-01-23T14:59:53;7.40;;;2.75;;
71777;SDS011;59609;52.430;4.668;2023-01-23T15:05:22;5.50;;;2.63;;
71777;SDS011;59609;52.430;4.668;2023-01-23T15:07:45;3.55;;;2.08;;
71777;SDS011;59609;52.430;4.668;2023-01-23T15:10:13;3.85;;;2.20;;
71777;SDS011;59609;52.430;4.668;2023-01-23T15:12:39;3.33;;;2.17;;
71777;SDS011;59609;52.430;4.668;2023-01-23T15:15:15;4.65;;;2.45;;
71777;SDS011;59609;52.430;4.668;2023-01-23T15:17:42;5.05;;;2.72;;
71777;SDS011;59609;52.430;4.668;2023-01-23T15:20:25;4.40;;;2.42;;
71777;SDS011;59609;52.430;4.668;2023-01-23T15:22:50;3.67;;;2.42;;
71777;SDS011;59609;52.430;4.668;2023-01-23T15:25:24;4.87;;;2.60;;
71777;SDS011;59609;52.430;4.668;2023-01-23T15:27:50;7.05;;;2.78;;
71777;SDS011;59609;52.430;4.668;2023-01-23T15:32:53;8.35;;;3.05;;
71777;SDS011;59609;52.430;4.668;2023-01-23T15:35:18;5.97;;;2.85;;
71777;SDS011;59609;52.430;4.668;2023-01-23T15:37:47;7.13;;;3.15;;
71777;SDS011;59609;52.430;4.668;2023-01-23T15:42:37;5.20;;;2.20;;
71777;SDS011;59609;52.430;4.668;2023-01-23T15:45:05;7.40;;;3.30;;
71777;SDS011;59609;52.430;4.668;2023-01-23T15:47:30;7.45;;;3.63;;
71777;SDS011;59609;52.430;4.668;2023-01-23T15:49:56;5.88;;;3.42;;
71777;SDS011;59609;52.430;4.668;2023-01-23T15:52:29;8.13;;;3.25;;
71777;SDS011;59609;52.430;4.668;2023-01-23T15:54:58;8.68;;;3.00;;
71777;SDS011;59609;52.430;4.668;2023-01-23T15:57:24;5.55;;;2.97;;
71777;SDS011;59609;52.430;4.668;2023-01-23T15:59:49;4.83;;;2.40;;
71777;SDS011;59609;52.430;4.668;2023-01-23T16:02:16;5.93;;;3.08;;
71777;SDS011;59609;52.430;4.668;2023-01-23T16:04:42;7.10;;;3.35;;
71777;SDS011;59609;52.430;4.668;2023-01-23T16:07:07;6.88;;;2.95;;
71777;SDS011;59609;52.430;4.668;2023-01-23T16:09:38;8.13;;;3.70;;
71777;SDS011;59609;52.430;4.668;2023-01-23T16:12:04;6.40;;;3.42;;
71777;SDS011;59609;52.430;4.668;2023-01-23T16:14:29;5.20;;;3.03;;
71777;SDS011;59609;52.430;4.668;2023-01-23T16:16:54;8.53;;;3.47;;
71777;SDS011;59609;52.430;4.668;2023-01-23T16:19:20;6.67;;;3.63;;
71777;SDS011;59609;52.430;4.668;2023-01-23T16:21:45;8.13;;;3.37;;
71777;SDS011;59609;52.430;4.668;2023-01-23T16:24:20;6.53;;;3.30;;
71777;SDS011;59609;52.430;4.668;2023-01-23T16:26:46;6.90;;;3.58;;
71777;SDS011;59609;52.430;4.668;2023-01-23T16:29:28;6.53;;;3.50;;
71777;SDS011;59609;52.430;4.668;2023-01-23T16:31:53;4.75;;;2.90;;
71777;SDS011;59609;52.430;4.668;2023-01-23T16:34:19;5.57;;;3.00;;
71777;SDS011;59609;52.430;4.668;2023-01-23T16:36:45;5.13;;;3.03;;
71777;SDS011;59609;52.430;4.668;2023-01-23T16:39:17;6.30;;;3.33;;
71777;SDS011;59609;52.430;4.668;2023-01-23T16:41:44;6.28;;;3.40;;
71777;SDS011;59609;52.430;4.668;2023-01-23T16:44:10;6.50;;;2.92;;
71777;SDS011;59609;52.430;4.668;2023-01-23T16:46:36;5.70;;;3.00;;
71777;SDS011;59609;52.430;4.668;2023-01-23T16:49:01;4.47;;;2.87;;